sensor_id;sensor_type;location;lat;lon;timestamp;temperature;humidity
67192;HTU21D;54120;53.504;49.426;2022-08-21T00:01:32;15.84;65.66
67192;HTU21D;54120;53.504;49.426;2022-08-21T00:04:04;16.18;64.66
67192;HTU21D;54120;53.504;49.426;2022-08-21T00:06:31;16.33;65.00
67192;HTU21D;54120;53.504;49.426;2022-08-21T00:08:58;16.51;63.15
67192;HTU21D;54120;53.504;49.426;2022-08-21T00:11:25;16.63;62.83
67192;HTU21D;54120;53.504;49.426;2022-08-21T00:13:53;16.63;63.98
67192;HTU21D;54120;53.504;49.426;2022-08-21T00:16:20;16.66;62.93
67192;HTU21D;54120;53.504;49.426;2022-08-21T00:18:46;16.59;63.13
67192;HTU21D;54120;53.504;49.426;2022-08-21T00:21:13;16.69;62.83
67192;HTU21D;54120;53.504;49.426;2022-08-21T00:23:40;16.82;62.39
67192;HTU21D;54120;53.504;49.426;2022-08-21T00:26:06;17.04;61.97
67192;HTU21D;54120;53.504;49.426;2022-08-21T00:28:33;16.99;61.88
67192;HTU21D;54120;53.504;49.426;2022-08-21T00:30:59;16.74;63.69
67192;HTU21D;54120;53.504;49.426;2022-08-21T00:33:25;16.39;64.14
67192;HTU21D;54120;53.504;49.426;2022-08-21T00:35:52;16.39;64.30
67192;HTU21D;54120;53.504;49.426;2022-08-21T00:38:18;16.24;64.92
67192;HTU21D;54120;53.504;49.426;2022-08-21T00:40:50;16.27;64.68
67192;HTU21D;54120;53.504;49.426;2022-08-21T00:43:22;16.07;66.33
67192;HTU21D;54120;53.504;49.426;2022-08-21T00:45:49;16.17;65.88
67192;HTU21D;54120;53.504;49.426;2022-08-21T00:48:15;16.61;63.51
67192;HTU21D;54120;53.504;49.426;2022-08-21T00:50:49;16.91;62.54
67192;HTU21D;54120;53.504;49.426;2022-08-21T00:53:16;16.66;63.17
67192;HTU21D;54120;53.504;49.426;2022-08-21T00:55:43;16.69;63.04
67192;HTU21D;54120;53.504;49.426;2022-08-21T00:58:13;16.77;63.18
67192;HTU21D;54120;53.504;49.426;2022-08-21T01:00:43;16.72;62.83
67192;HTU21D;54120;53.504;49.426;2022-08-21T01:03:13;16.73;62.75
67192;HTU21D;54120;53.504;49.426;2022-08-21T01:05:41;16.67;63.01
67192;HTU21D;54120;53.504;49.426;2022-08-21T01:08:08;16.61;63.56
67192;HTU21D;54120;53.504;49.426;2022-08-21T01:10:36;16.51;64.05
67192;HTU21D;54120;53.504;49.426;2022-08-21T01:13:07;16.34;64.96
67192;HTU21D;54120;53.504;49.426;2022-08-21T01:15:40;16.20;66.55
67192;HTU21D;54120;53.504;49.426;2022-08-21T01:18:09;16.13;66.62
67192;HTU21D;54120;53.504;49.426;2022-08-21T01:20:38;16.01;67.46
67192;HTU21D;54120;53.504;49.426;2022-08-21T01:23:05;15.92;68.09
67192;HTU21D;54120;53.504;49.426;2022-08-21T01:25:32;15.91;68.18
67192;HTU21D;54120;53.504;49.426;2022-08-21T01:28:04;15.84;68.54
67192;HTU21D;54120;53.504;49.426;2022-08-21T01:30:33;15.74;68.98
67192;HTU21D;54120;53.504;49.426;2022-08-21T01:33:00;15.61;69.49
67192;HTU21D;54120;53.504;49.426;2022-08-21T01:35:27;15.47;70.12
67192;HTU21D;54120;53.504;49.426;2022-08-21T01:37:54;15.48;70.26
67192;HTU21D;54120;53.504;49.426;2022-08-21T01:40:20;15.54;70.16
67192;HTU21D;54120;53.504;49.426;2022-08-21T01:42:47;15.57;70.14
67192;HTU21D;54120;53.504;49.426;2022-08-21T01:45:15;15.63;69.87
67192;HTU21D;54120;53.504;49.426;2022-08-21T01:47:43;15.69;69.76
67192;HTU21D;54120;53.504;49.426;2022-08-21T01:50:13;15.76;69.49
67192;HTU21D;54120;53.504;49.426;2022-08-21T01:52:40;15.83;69.40
67192;HTU21D;54120;53.504;49.426;2022-08-21T01:55:07;15.89;69.16
67192;HTU21D;54120;53.504;49.426;2022-08-21T01:57:34;15.98;68.90
67192;HTU21D;54120;53.504;49.426;2022-08-21T02:00:01;16.06;68.74
67192;HTU21D;54120;53.504;49.426;2022-08-21T02:02:30;16.16;68.42
67192;HTU21D;54120;53.504;49.426;2022-08-21T02:04:56;16.24;68.23
67192;HTU21D;54120;53.504;49.426;2022-08-21T02:07:22;16.31;68.07
67192;HTU21D;54120;53.504;49.426;2022-08-21T02:09:49;16.40;67.71
67192;HTU21D;54120;53.504;49.426;2022-08-21T02:12:15;16.47;67.53
67192;HTU21D;54120;53.504;49.426;2022-08-21T02:15:03;16.51;67.70
67192;HTU21D;54120;53.504;49.426;2022-08-21T02:17:51;16.50;67.55
67192;HTU21D;54120;53.504;49.426;2022-08-21T02:20:23;16.59;67.47
67192;HTU21D;54120;53.504;49.426;2022-08-21T02:22:50;17.79;63.18
67192;HTU21D;54120;53.504;49.426;2022-08-21T02:25:17;20.02;55.58
67192;HTU21D;54120;53.504;49.426;2022-08-21T02:27:45;21.65;50.47
67192;HTU21D;54120;53.504;49.426;2022-08-21T02:30:38;22.73;47.16
67192;HTU21D;54120;53.504;49.426;2022-08-21T02:33:05;23.65;44.71
67192;HTU21D;54120;53.504;49.426;2022-08-21T02:35:32;23.10;45.90
67192;HTU21D;54120;53.504;49.426;2022-08-21T02:38:03;20.92;52.31
67192;HTU21D;54120;53.504;49.426;2022-08-21T02:40:32;19.69;56.68
67192;HTU21D;54120;53.504;49.426;2022-08-21T02:42:59;19.40;58.53
67192;HTU21D;54120;53.504;49.426;2022-08-21T02:45:26;21.43;52.37
67192;HTU21D;54120;53.504;49.426;2022-08-21T02:47:57;24.20;43.91
67192;HTU21D;54120;53.504;49.426;2022-08-21T02:50:28;25.80;39.93
67192;HTU21D;54120;53.504;49.426;2022-08-21T02:52:55;26.90;37.14
67192;HTU21D;54120;53.504;49.426;2022-08-21T02:55:23;28.04;35.13
67192;HTU21D;54120;53.504;49.426;2022-08-21T02:57:49;29.02;32.22
67192;HTU21D;54120;53.504;49.426;2022-08-21T03:00:16;29.64;32.06
67192;HTU21D;54120;53.504;49.426;2022-08-21T03:02:42;30.13;31.26
67192;HTU21D;54120;53.504;49.426;2022-08-21T03:05:09;30.74;29.42
67192;HTU21D;54120;53.504;49.426;2022-08-21T03:07:37;31.15;28.39
67192;HTU21D;54120;53.504;49.426;2022-08-21T03:10:04;30.83;29.34
67192;HTU21D;54120;53.504;49.426;2022-08-21T03:12:31;30.68;29.52
67192;HTU21D;54120;53.504;49.426;2022-08-21T03:14:58;30.86;29.77
67192;HTU21D;54120;53.504;49.426;2022-08-21T03:17:25;30.74;29.62
67192;HTU21D;54120;53.504;49.426;2022-08-21T03:19:51;30.63;29.48
67192;HTU21D;54120;53.504;49.426;2022-08-21T03:22:17;30.75;29.73
67192;HTU21D;54120;53.504;49.426;2022-08-21T03:24:43;31.02;28.80
67192;HTU21D;54120;53.504;49.426;2022-08-21T03:27:11;31.40;28.43
67192;HTU21D;54120;53.504;49.426;2022-08-21T03:29:39;31.38;28.12
67192;HTU21D;54120;53.504;49.426;2022-08-21T03:32:06;31.49;28.96
67192;HTU21D;54120;53.504;49.426;2022-08-21T03:34:38;31.45;28.67
67192;HTU21D;54120;53.504;49.426;2022-08-21T03:37:06;31.48;28.33
67192;HTU21D;54120;53.504;49.426;2022-08-21T03:39:34;31.19;29.37
67192;HTU21D;54120;53.504;49.426;2022-08-21T03:42:00;31.79;28.39
67192;HTU21D;54120;53.504;49.426;2022-08-21T03:44:27;31.89;27.99
67192;HTU21D;54120;53.504;49.426;2022-08-21T03:46:55;31.24;29.07
67192;HTU21D;54120;53.504;49.426;2022-08-21T03:49:22;31.99;27.63
67192;HTU21D;54120;53.504;49.426;2022-08-21T03:51:48;31.13;29.51
67192;HTU21D;54120;53.504;49.426;2022-08-21T03:54:14;31.26;29.58
67192;HTU21D;54120;53.504;49.426;2022-08-21T03:56:40;31.05;29.79
67192;HTU21D;54120;53.504;49.426;2022-08-21T03:59:07;30.56;30.71
67192;HTU21D;54120;53.504;49.426;2022-08-21T04:01:34;29.96;32.16
67192;HTU21D;54120;53.504;49.426;2022-08-21T04:04:00;30.32;31.70
67192;HTU21D;54120;53.504;49.426;2022-08-21T04:06:26;30.45;31.21
67192;HTU21D;54120;53.504;49.426;2022-08-21T04:08:53;30.23;31.49
67192;HTU21D;54120;53.504;49.426;2022-08-21T04:11:20;30.60;30.83
67192;HTU21D;54120;53.504;49.426;2022-08-21T04:13:47;31.89;28.68
67192;HTU21D;54120;53.504;49.426;2022-08-21T04:16:14;31.71;29.13
67192;HTU21D;54120;53.504;49.426;2022-08-21T04:18:40;33.14;27.26
67192;HTU21D;54120;53.504;49.426;2022-08-21T04:21:09;32.60;27.52
67192;HTU21D;54120;53.504;49.426;2022-08-21T04:23:36;33.19;27.29
67192;HTU21D;54120;53.504;49.426;2022-08-21T04:26:03;34.26;25.96
67192;HTU21D;54120;53.504;49.426;2022-08-21T04:28:29;33.59;26.06
67192;HTU21D;54120;53.504;49.426;2022-08-21T04:30:56;33.55;26.54
67192;HTU21D;54120;53.504;49.426;2022-08-21T04:33:22;33.65;26.52
67192;HTU21D;54120;53.504;49.426;2022-08-21T04:35:49;34.50;25.36
67192;HTU21D;54120;53.504;49.426;2022-08-21T04:38:16;33.58;26.44
67192;HTU21D;54120;53.504;49.426;2022-08-21T04:40:42;33.68;27.13
67192;HTU21D;54120;53.504;49.426;2022-08-21T04:43:10;33.48;26.65
67192;HTU21D;54120;53.504;49.426;2022-08-21T04:45:42;34.09;25.64
67192;HTU21D;54120;53.504;49.426;2022-08-21T04:48:11;34.57;24.89
67192;HTU21D;54120;53.504;49.426;2022-08-21T04:53:36;35.99;22.64
67192;HTU21D;54120;53.504;49.426;2022-08-21T04:56:12;36.24;22.46
67192;HTU21D;54120;53.504;49.426;2022-08-21T04:58:39;34.76;24.67
67192;HTU21D;54120;53.504;49.426;2022-08-21T05:01:12;35.50;24.44
67192;HTU21D;54120;53.504;49.426;2022-08-21T05:03:39;36.08;23.19
67192;HTU21D;54120;53.504;49.426;2022-08-21T05:06:08;35.85;23.49
67192;HTU21D;54120;53.504;49.426;2022-08-21T05:08:36;35.86;23.66
67192;HTU21D;54120;53.504;49.426;2022-08-21T05:11:03;35.93;23.37
67192;HTU21D;54120;53.504;49.426;2022-08-21T05:13:30;36.09;23.40
67192;HTU21D;54120;53.504;49.426;2022-08-21T05:15:56;36.03;23.49
67192;HTU21D;54120;53.504;49.426;2022-08-21T05:18:22;35.75;23.60
67192;HTU21D;54120;53.504;49.426;2022-08-21T05:20:49;36.42;22.53
67192;HTU21D;54120;53.504;49.426;2022-08-21T05:23:16;37.41;21.50
67192;HTU21D;54120;53.504;49.426;2022-08-21T05:25:43;37.18;22.08
67192;HTU21D;54120;53.504;49.426;2022-08-21T05:28:09;36.16;23.40
67192;HTU21D;54120;53.504;49.426;2022-08-21T05:30:36;37.63;21.67
67192;HTU21D;54120;53.504;49.426;2022-08-21T05:33:04;37.95;20.34
67192;HTU21D;54120;53.504;49.426;2022-08-21T05:35:31;37.72;21.24
67192;HTU21D;54120;53.504;49.426;2022-08-21T05:37:59;38.67;19.62
67192;HTU21D;54120;53.504;49.426;2022-08-21T05:40:25;36.48;22.79
67192;HTU21D;54120;53.504;49.426;2022-08-21T05:42:53;34.96;25.21
67192;HTU21D;54120;53.504;49.426;2022-08-21T05:45:20;35.47;24.67
67192;HTU21D;54120;53.504;49.426;2022-08-21T05:47:47;37.10;23.21
67192;HTU21D;54120;53.504;49.426;2022-08-21T05:50:13;38.24;21.50
67192;HTU21D;54120;53.504;49.426;2022-08-21T05:52:39;37.43;22.14
67192;HTU21D;54120;53.504;49.426;2022-08-21T05:55:05;36.36;23.81
67192;HTU21D;54120;53.504;49.426;2022-08-21T05:57:31;36.54;23.37
67192;HTU21D;54120;53.504;49.426;2022-08-21T05:59:58;37.71;21.63
67192;HTU21D;54120;53.504;49.426;2022-08-21T06:02:24;36.09;24.94
67192;HTU21D;54120;53.504;49.426;2022-08-21T06:04:50;36.40;24.36
67192;HTU21D;54120;53.504;49.426;2022-08-21T06:07:16;36.13;25.13
67192;HTU21D;54120;53.504;49.426;2022-08-21T06:09:42;36.59;23.85
67192;HTU21D;54120;53.504;49.426;2022-08-21T06:12:11;35.36;25.30
67192;HTU21D;54120;53.504;49.426;2022-08-21T06:14:39;35.86;25.29
67192;HTU21D;54120;53.504;49.426;2022-08-21T06:17:07;36.74;23.75
67192;HTU21D;54120;53.504;49.426;2022-08-21T06:19:34;37.56;22.76
67192;HTU21D;54120;53.504;49.426;2022-08-21T06:22:00;37.27;22.78
67192;HTU21D;54120;53.504;49.426;2022-08-21T06:24:27;37.06;22.74
67192;HTU21D;54120;53.504;49.426;2022-08-21T06:26:53;36.38;24.49
67192;HTU21D;54120;53.504;49.426;2022-08-21T06:29:20;36.44;24.15
67192;HTU21D;54120;53.504;49.426;2022-08-21T06:31:48;37.87;22.50
67192;HTU21D;54120;53.504;49.426;2022-08-21T06:34:15;36.98;22.67
67192;HTU21D;54120;53.504;49.426;2022-08-21T06:36:41;36.32;23.33
67192;HTU21D;54120;53.504;49.426;2022-08-21T06:39:07;35.83;24.49
67192;HTU21D;54120;53.504;49.426;2022-08-21T06:41:34;35.49;24.84
67192;HTU21D;54120;53.504;49.426;2022-08-21T06:44:00;34.41;26.25
67192;HTU21D;54120;53.504;49.426;2022-08-21T06:46:28;33.91;27.30
67192;HTU21D;54120;53.504;49.426;2022-08-21T06:48:56;34.94;26.01
67192;HTU21D;54120;53.504;49.426;2022-08-21T06:51:23;35.25;24.84
67192;HTU21D;54120;53.504;49.426;2022-08-21T06:53:49;36.47;22.91
67192;HTU21D;54120;53.504;49.426;2022-08-21T06:56:15;35.29;24.10
67192;HTU21D;54120;53.504;49.426;2022-08-21T06:58:41;35.88;23.75
67192;HTU21D;54120;53.504;49.426;2022-08-21T07:01:07;36.21;22.86
67192;HTU21D;54120;53.504;49.426;2022-08-21T07:03:40;35.89;23.67
67192;HTU21D;54120;53.504;49.426;2022-08-21T07:06:08;36.17;23.96
67192;HTU21D;54120;53.504;49.426;2022-08-21T07:08:36;35.59;24.32
67192;HTU21D;54120;53.504;49.426;2022-08-21T07:11:09;35.86;24.39
67192;HTU21D;54120;53.504;49.426;2022-08-21T07:13:36;35.42;24.96
67192;HTU21D;54120;53.504;49.426;2022-08-21T07:16:03;35.64;24.43
67192;HTU21D;54120;53.504;49.426;2022-08-21T07:18:29;36.04;23.82
67192;HTU21D;54120;53.504;49.426;2022-08-21T07:20:55;35.81;23.43
67192;HTU21D;54120;53.504;49.426;2022-08-21T07:23:31;34.98;24.63
67192;HTU21D;54120;53.504;49.426;2022-08-21T07:25:58;33.94;25.61
67192;HTU21D;54120;53.504;49.426;2022-08-21T07:28:27;33.57;26.75
67192;HTU21D;54120;53.504;49.426;2022-08-21T07:30:55;33.93;26.28
67192;HTU21D;54120;53.504;49.426;2022-08-21T07:33:22;33.86;26.06
67192;HTU21D;54120;53.504;49.426;2022-08-21T07:35:48;33.30;27.04
67192;HTU21D;54120;53.504;49.426;2022-08-21T07:38:15;33.62;26.99
67192;HTU21D;54120;53.504;49.426;2022-08-21T07:40:41;32.91;27.37
67192;HTU21D;54120;53.504;49.426;2022-08-21T07:43:07;31.40;30.59
67192;HTU21D;54120;53.504;49.426;2022-08-21T07:45:34;31.69;30.32
67192;HTU21D;54120;53.504;49.426;2022-08-21T07:48:00;32.32;29.77
67192;HTU21D;54120;53.504;49.426;2022-08-21T07:50:27;31.69;30.44
67192;HTU21D;54120;53.504;49.426;2022-08-21T07:52:53;29.20;35.77
67192;HTU21D;54120;53.504;49.426;2022-08-21T07:55:20;28.31;38.15
67192;HTU21D;54120;53.504;49.426;2022-08-21T07:57:47;28.32;37.92
67192;HTU21D;54120;53.504;49.426;2022-08-21T08:00:18;28.41;37.34
67192;HTU21D;54120;53.504;49.426;2022-08-21T08:02:47;28.04;38.68
67192;HTU21D;54120;53.504;49.426;2022-08-21T08:05:17;28.79;37.02
67192;HTU21D;54120;53.504;49.426;2022-08-21T08:07:44;28.68;37.11
67192;HTU21D;54120;53.504;49.426;2022-08-21T08:10:11;28.61;37.42
67192;HTU21D;54120;53.504;49.426;2022-08-21T08:12:40;28.65;36.62
67192;HTU21D;54120;53.504;49.426;2022-08-21T08:15:09;28.49;37.35
67192;HTU21D;54120;53.504;49.426;2022-08-21T08:17:37;28.59;37.56
67192;HTU21D;54120;53.504;49.426;2022-08-21T08:20:10;28.40;35.96
67192;HTU21D;54120;53.504;49.426;2022-08-21T08:22:37;28.40;36.61
67192;HTU21D;54120;53.504;49.426;2022-08-21T08:25:06;28.43;36.42
67192;HTU21D;54120;53.504;49.426;2022-08-21T08:27:32;28.37;37.42
67192;HTU21D;54120;53.504;49.426;2022-08-21T08:29:58;28.67;36.21
67192;HTU21D;54120;53.504;49.426;2022-08-21T08:32:25;28.69;36.34
67192;HTU21D;54120;53.504;49.426;2022-08-21T08:34:51;28.75;36.91
67192;HTU21D;54120;53.504;49.426;2022-08-21T08:37:19;28.97;36.15
67192;HTU21D;54120;53.504;49.426;2022-08-21T08:39:46;28.91;36.15
67192;HTU21D;54120;53.504;49.426;2022-08-21T08:42:17;28.64;37.72
67192;HTU21D;54120;53.504;49.426;2022-08-21T08:44:45;28.43;36.35
67192;HTU21D;54120;53.504;49.426;2022-08-21T08:47:16;28.35;36.03
67192;HTU21D;54120;53.504;49.426;2022-08-21T08:49:49;28.55;36.37
67192;HTU21D;54120;53.504;49.426;2022-08-21T08:52:29;28.26;37.21
67192;HTU21D;54120;53.504;49.426;2022-08-21T08:56:02;28.43;36.68
67192;HTU21D;54120;53.504;49.426;2022-08-21T08:57:55;28.54;36.01
67192;HTU21D;54120;53.504;49.426;2022-08-21T09:00:23;28.67;35.94
67192;HTU21D;54120;53.504;49.426;2022-08-21T09:02:54;28.76;36.07
67192;HTU21D;54120;53.504;49.426;2022-08-21T09:05:27;28.37;35.93
67192;HTU21D;54120;53.504;49.426;2022-08-21T09:19:07;28.80;36.66
67192;HTU21D;54120;53.504;49.426;2022-08-21T09:27:20;29.36;35.23
67192;HTU21D;54120;53.504;49.426;2022-08-21T09:29:50;29.23;35.00
67192;HTU21D;54120;53.504;49.426;2022-08-21T09:32:21;29.29;35.40
67192;HTU21D;54120;53.504;49.426;2022-08-21T09:34:56;28.82;36.22
67192;HTU21D;54120;53.504;49.426;2022-08-21T09:37:23;29.04;36.02
67192;HTU21D;54120;53.504;49.426;2022-08-21T09:39:49;29.30;36.21
67192;HTU21D;54120;53.504;49.426;2022-08-21T09:42:26;29.15;35.71
67192;HTU21D;54120;53.504;49.426;2022-08-21T09:45:13;28.93;35.98
67192;HTU21D;54120;53.504;49.426;2022-08-21T09:47:40;29.05;36.35
67192;HTU21D;54120;53.504;49.426;2022-08-21T09:50:12;29.35;34.63
67192;HTU21D;54120;53.504;49.426;2022-08-21T09:52:49;29.11;34.59
67192;HTU21D;54120;53.504;49.426;2022-08-21T09:55:30;28.98;35.24
67192;HTU21D;54120;53.504;49.426;2022-08-21T09:58:16;29.02;35.47
67192;HTU21D;54120;53.504;49.426;2022-08-21T10:00:43;29.18;36.21
67192;HTU21D;54120;53.504;49.426;2022-08-21T10:03:16;29.42;35.30
67192;HTU21D;54120;53.504;49.426;2022-08-21T10:05:56;29.06;35.92
67192;HTU21D;54120;53.504;49.426;2022-08-21T10:08:24;29.00;36.28
67192;HTU21D;54120;53.504;49.426;2022-08-21T10:10:56;28.91;35.73
67192;HTU21D;54120;53.504;49.426;2022-08-21T10:13:50;29.11;36.32
67192;HTU21D;54120;53.504;49.426;2022-08-21T10:35:27;29.24;34.70
67192;HTU21D;54120;53.504;49.426;2022-08-21T10:54:52;29.47;34.33
67192;HTU21D;54120;53.504;49.426;2022-08-21T11:00:00;29.61;32.01
67192;HTU21D;54120;53.504;49.426;2022-08-21T11:02:33;29.44;31.63
67192;HTU21D;54120;53.504;49.426;2022-08-21T11:05:21;29.35;32.65
67192;HTU21D;54120;53.504;49.426;2022-08-21T11:13:53;29.45;33.48
67192;HTU21D;54120;53.504;49.426;2022-08-21T11:21:54;29.51;32.93
67192;HTU21D;54120;53.504;49.426;2022-08-21T11:24:47;29.37;32.58
67192;HTU21D;54120;53.504;49.426;2022-08-21T11:30:19;29.58;33.30
67192;HTU21D;54120;53.504;49.426;2022-08-21T11:36:02;29.52;32.47
67192;HTU21D;54120;53.504;49.426;2022-08-21T11:38:48;29.54;32.22
67192;HTU21D;54120;53.504;49.426;2022-08-21T11:41:22;29.48;31.97
67192;HTU21D;54120;53.504;49.426;2022-08-21T11:46:58;29.71;31.96
67192;HTU21D;54120;53.504;49.426;2022-08-21T11:54:52;30.16;31.90
67192;HTU21D;54120;53.504;49.426;2022-08-21T11:57:24;29.94;31.61
67192;HTU21D;54120;53.504;49.426;2022-08-21T12:02:43;29.89;30.05
67192;HTU21D;54120;53.504;49.426;2022-08-21T12:05:42;29.65;30.80
67192;HTU21D;54120;53.504;49.426;2022-08-21T12:08:14;29.68;32.02
67192;HTU21D;54120;53.504;49.426;2022-08-21T12:10:46;29.74;32.13
67192;HTU21D;54120;53.504;49.426;2022-08-21T12:13:29;29.63;32.39
67192;HTU21D;54120;53.504;49.426;2022-08-21T12:16:10;29.70;32.09
67192;HTU21D;54120;53.504;49.426;2022-08-21T12:18:38;29.86;31.68
67192;HTU21D;54120;53.504;49.426;2022-08-21T12:21:15;30.05;31.16
67192;HTU21D;54120;53.504;49.426;2022-08-21T12:23:49;30.08;31.26
67192;HTU21D;54120;53.504;49.426;2022-08-21T12:27:13;30.06;31.01
67192;HTU21D;54120;53.504;49.426;2022-08-21T12:29:36;29.91;29.58
67192;HTU21D;54120;53.504;49.426;2022-08-21T12:32:26;29.98;30.58
67192;HTU21D;54120;53.504;49.426;2022-08-21T12:35:01;30.00;30.43
67192;HTU21D;54120;53.504;49.426;2022-08-21T12:37:39;29.85;29.67
67192;HTU21D;54120;53.504;49.426;2022-08-21T12:40:36;29.75;29.27
67192;HTU21D;54120;53.504;49.426;2022-08-21T12:43:00;29.75;29.78
67192;HTU21D;54120;53.504;49.426;2022-08-21T12:45:34;29.89;28.79
67192;HTU21D;54120;53.504;49.426;2022-08-21T12:48:16;29.95;29.49
67192;HTU21D;54120;53.504;49.426;2022-08-21T12:50:49;30.08;28.76
67192;HTU21D;54120;53.504;49.426;2022-08-21T12:53:27;29.96;29.22
67192;HTU21D;54120;53.504;49.426;2022-08-21T12:55:56;30.00;29.43
67192;HTU21D;54120;53.504;49.426;2022-08-21T12:58:27;29.95;29.16
67192;HTU21D;54120;53.504;49.426;2022-08-21T13:01:19;29.80;30.06
67192;HTU21D;54120;53.504;49.426;2022-08-21T13:03:46;29.82;29.71
67192;HTU21D;54120;53.504;49.426;2022-08-21T13:06:16;29.81;30.35
67192;HTU21D;54120;53.504;49.426;2022-08-21T13:08:44;29.75;29.51
67192;HTU21D;54120;53.504;49.426;2022-08-21T13:11:15;29.77;29.97
67192;HTU21D;54120;53.504;49.426;2022-08-21T13:13:42;29.86;29.86
67192;HTU21D;54120;53.504;49.426;2022-08-21T13:16:09;29.81;30.23
67192;HTU21D;54120;53.504;49.426;2022-08-21T13:18:51;29.81;29.75
67192;HTU21D;54120;53.504;49.426;2022-08-21T13:21:17;29.81;30.23
67192;HTU21D;54120;53.504;49.426;2022-08-21T13:23:43;29.88;30.01
67192;HTU21D;54120;53.504;49.426;2022-08-21T13:26:20;29.88;29.96
67192;HTU21D;54120;53.504;49.426;2022-08-21T13:28:48;29.87;29.58
67192;HTU21D;54120;53.504;49.426;2022-08-21T13:31:22;29.88;29.84
67192;HTU21D;54120;53.504;49.426;2022-08-21T13:33:50;29.83;29.61
67192;HTU21D;54120;53.504;49.426;2022-08-21T13:36:25;29.77;30.12
67192;HTU21D;54120;53.504;49.426;2022-08-21T13:38:52;29.73;30.00
67192;HTU21D;54120;53.504;49.426;2022-08-21T13:41:41;29.82;29.32
67192;HTU21D;54120;53.504;49.426;2022-08-21T13:44:21;29.89;30.09
67192;HTU21D;54120;53.504;49.426;2022-08-21T13:46:53;29.82;30.09
67192;HTU21D;54120;53.504;49.426;2022-08-21T13:49:35;29.79;29.84
67192;HTU21D;54120;53.504;49.426;2022-08-21T13:52:04;29.73;30.39
67192;HTU21D;54120;53.504;49.426;2022-08-21T13:54:40;29.68;30.59
67192;HTU21D;54120;53.504;49.426;2022-08-21T13:57:33;29.76;30.64
67192;HTU21D;54120;53.504;49.426;2022-08-21T14:00:24;29.76;30.11
67192;HTU21D;54120;53.504;49.426;2022-08-21T14:02:53;29.88;31.03
67192;HTU21D;54120;53.504;49.426;2022-08-21T14:05:26;29.80;30.03
67192;HTU21D;54120;53.504;49.426;2022-08-21T14:08:10;29.67;30.58
67192;HTU21D;54120;53.504;49.426;2022-08-21T14:10:50;29.52;30.65
67192;HTU21D;54120;53.504;49.426;2022-08-21T14:16:01;29.57;31.16
67192;HTU21D;54120;53.504;49.426;2022-08-21T14:18:28;29.51;29.96
67192;HTU21D;54120;53.504;49.426;2022-08-21T14:21:06;29.44;29.70
67192;HTU21D;54120;53.504;49.426;2022-08-21T14:23:34;29.45;29.67
67192;HTU21D;54120;53.504;49.426;2022-08-21T14:26:04;29.45;29.79
67192;HTU21D;54120;53.504;49.426;2022-08-21T14:28:34;29.46;29.91
67192;HTU21D;54120;53.504;49.426;2022-08-21T14:31:19;29.38;29.36
67192;HTU21D;54120;53.504;49.426;2022-08-21T14:33:46;29.33;29.16
67192;HTU21D;54120;53.504;49.426;2022-08-21T14:36:12;29.31;29.40
67192;HTU21D;54120;53.504;49.426;2022-08-21T14:38:40;29.24;29.83
67192;HTU21D;54120;53.504;49.426;2022-08-21T14:41:18;29.14;30.50
67192;HTU21D;54120;53.504;49.426;2022-08-21T14:43:46;29.08;30.32
67192;HTU21D;54120;53.504;49.426;2022-08-21T14:46:27;29.04;30.39
67192;HTU21D;54120;53.504;49.426;2022-08-21T14:48:54;29.00;30.75
67192;HTU21D;54120;53.504;49.426;2022-08-21T14:51:21;28.92;31.17
67192;HTU21D;54120;53.504;49.426;2022-08-21T14:53:47;28.80;32.08
67192;HTU21D;54120;53.504;49.426;2022-08-21T14:56:14;28.65;32.03
67192;HTU21D;54120;53.504;49.426;2022-08-21T14:58:44;28.64;32.12
67192;HTU21D;54120;53.504;49.426;2022-08-21T15:01:12;28.57;32.42
67192;HTU21D;54120;53.504;49.426;2022-08-21T15:03:39;28.49;32.65
67192;HTU21D;54120;53.504;49.426;2022-08-21T15:06:06;28.48;32.54
67192;HTU21D;54120;53.504;49.426;2022-08-21T15:08:33;28.43;32.96
67192;HTU21D;54120;53.504;49.426;2022-08-21T15:11:01;28.38;32.53
67192;HTU21D;54120;53.504;49.426;2022-08-21T15:13:28;28.37;32.85
67192;HTU21D;54120;53.504;49.426;2022-08-21T15:15:54;28.29;33.38
67192;HTU21D;54120;53.504;49.426;2022-08-21T15:18:28;28.23;33.31
67192;HTU21D;54120;53.504;49.426;2022-08-21T15:20:55;28.09;33.68
67192;HTU21D;54120;53.504;49.426;2022-08-21T15:23:22;28.00;34.11
67192;HTU21D;54120;53.504;49.426;2022-08-21T15:25:49;27.82;34.64
67192;HTU21D;54120;53.504;49.426;2022-08-21T15:28:17;27.76;35.03
67192;HTU21D;54120;53.504;49.426;2022-08-21T15:30:44;27.61;34.92
67192;HTU21D;54120;53.504;49.426;2022-08-21T15:33:11;27.55;35.02
67192;HTU21D;54120;53.504;49.426;2022-08-21T15:35:37;27.52;35.27
67192;HTU21D;54120;53.504;49.426;2022-08-21T15:38:05;27.53;35.33
67192;HTU21D;54120;53.504;49.426;2022-08-21T15:40:31;27.44;35.22
67192;HTU21D;54120;53.504;49.426;2022-08-21T15:43:00;27.39;35.10
67192;HTU21D;54120;53.504;49.426;2022-08-21T15:45:27;27.29;35.74
67192;HTU21D;54120;53.504;49.426;2022-08-21T15:47:54;27.14;36.94
67192;HTU21D;54120;53.504;49.426;2022-08-21T15:50:22;27.02;36.79
67192;HTU21D;54120;53.504;49.426;2022-08-21T15:52:48;26.95;37.08
67192;HTU21D;54120;53.504;49.426;2022-08-21T15:55:15;26.83;37.25
67192;HTU21D;54120;53.504;49.426;2022-08-21T15:57:48;26.73;37.65
67192;HTU21D;54120;53.504;49.426;2022-08-21T16:00:20;26.72;37.94
67192;HTU21D;54120;53.504;49.426;2022-08-21T16:02:51;26.61;37.93
67192;HTU21D;54120;53.504;49.426;2022-08-21T16:05:19;26.56;38.08
67192;HTU21D;54120;53.504;49.426;2022-08-21T16:07:46;26.43;38.49
67192;HTU21D;54120;53.504;49.426;2022-08-21T16:10:14;26.42;38.30
67192;HTU21D;54120;53.504;49.426;2022-08-21T16:12:44;26.35;38.78
67192;HTU21D;54120;53.504;49.426;2022-08-21T16:15:13;26.26;38.97
67192;HTU21D;54120;53.504;49.426;2022-08-21T16:17:41;26.18;39.42
67192;HTU21D;54120;53.504;49.426;2022-08-21T16:20:11;26.11;40.26
67192;HTU21D;54120;53.504;49.426;2022-08-21T16:22:38;26.05;39.72
67192;HTU21D;54120;53.504;49.426;2022-08-21T16:25:05;26.01;39.92
67192;HTU21D;54120;53.504;49.426;2022-08-21T16:27:33;25.90;40.20
67192;HTU21D;54120;53.504;49.426;2022-08-21T16:30:00;25.84;40.46
67192;HTU21D;54120;53.504;49.426;2022-08-21T16:32:27;25.73;40.67
67192;HTU21D;54120;53.504;49.426;2022-08-21T16:34:54;25.62;40.81
67192;HTU21D;54120;53.504;49.426;2022-08-21T16:37:20;25.62;40.97
67192;HTU21D;54120;53.504;49.426;2022-08-21T16:39:47;25.72;40.83
67192;HTU21D;54120;53.504;49.426;2022-08-21T16:42:17;25.68;40.65
67192;HTU21D;54120;53.504;49.426;2022-08-21T16:44:44;25.50;41.58
67192;HTU21D;54120;53.504;49.426;2022-08-21T16:47:10;25.52;41.47
67192;HTU21D;54120;53.504;49.426;2022-08-21T16:49:37;25.52;41.17